Valley Peak, Santa Cruz Island Reserve, California Weather observations

Data are for 10 minute period ending at time listed.
 Day   Time   Solar   Ave.   Ave.  Ave.  Vector  Max.   Baro.   Total    
  of    of     Rad.   Air    Rel.  Wind   Wind   Wind  Press.  Precip.   
Year   Day            Temp.  Hum.  Speed  Dir.   Gust                    
2016   (PST)  Kw/m2    F      %     mph   deg.    mph    mb.     in.     
-------------------------------------------------------------------------
 122   13:10   0.92   65.2    62    8.6   150    14.8   963.4    0.00 
 122   13:20   0.91   65.8    60    9.4   153    16.6   963.5    0.00 
 122   13:30   0.90   64.1    64   10.3   162    17.1   963.5    0.00 
 122   13:40   0.86   62.8    66    9.6   166    15.7   963.6    0.00 
 122   13:50   0.74   61.9    68    9.9   162    17.8   963.6    0.00 
 122   14:00   0.81   61.5    69   10.1   171    15.7   963.6    0.00 
 122   14:10   0.82   63.0    66    8.5   148    15.3   963.6    0.00 
 122   14:20   0.80   63.5    64    8.1   156    14.0   963.4    0.00 
 122   14:30   0.77   64.1    63    7.2   168    12.9   963.4    0.00 
 122   14:40   0.75   64.0    63    8.1   160    13.3   963.3    0.00 
 122   14:50   0.72   63.2    64    6.9   152    11.5   963.3    0.00 
 122   15:00   0.70   64.4    62    5.8   150    11.5   963.3    0.00 
 122   15:10   0.67   65.2    60    5.7   152    10.3   963.4    0.00 
 122   15:20   0.64   65.8    59    4.8   142    10.2   963.4    0.00 
 122   15:30   0.60   65.9    59    4.0   147     8.8   963.4    0.00 
 122   15:40   0.57   66.0    58    4.4   148     8.4   963.3    0.00 
 122   15:50   0.54   67.9    55    3.7   140     7.3   963.2    0.00 
 122   16:00   0.51   67.2    56    3.9   147     7.5   963.2    0.00 
 122   16:10   0.48   68.5    55    3.5   136     8.2   963.2    0.00 
 122   16:20   0.44   68.5    54    3.7   144     7.6   963.2    0.00 
 122   16:30   0.40   67.1    56    4.0   148     7.2   963.2    0.00 
 122   16:40   0.37   66.1    58    4.2   152     7.2   963.1    0.00 
 122   16:50   0.33   65.8    58    4.0   158     7.2   963.1    0.00 
 122   17:00   0.30   64.1    62    5.0   147     8.6   963.1    0.00 
 122   17:10   0.26   62.8    65    4.1   151     6.8   963.1    0.00 
 122   17:20   0.23   61.5    68    4.2   160     5.8   963.1    0.00 
 122   17:30   0.19   60.3    70    3.2   171     6.1   963.1    0.00 
 122   17:40   0.16   60.0    71    3.8   159     5.5   963.1    0.00 
 122   17:50   0.13   58.0    75    4.7   158     6.0   963.3    0.00 
 122   18:00   0.10   55.5    82    5.3   169     7.2   963.4    0.00 
 122   18:10   0.07   55.3    82    2.7   159     5.0   963.5    0.00 
 122   18:20   0.04   57.4    72    1.6   358     3.0   963.7    0.00 
 122   18:30   0.02   56.9    76    3.9    30     5.8   963.8    0.00 
 122   18:40   0.01   54.2    84    5.9    31     7.5   964.0    0.00 
 122   18:50   0.00   52.5    90    5.4    31     6.9   964.1    0.00 
 122   19:00   0.00   51.8    92    5.3    34     6.6   964.2    0.00 
 122   19:10   0.00   51.6    94    4.0    30     5.0   964.4    0.00 
 122   19:20   0.00   51.5    94    4.8    27     6.1   964.6    0.00 
 122   19:30   0.00   51.4    94    5.7    30     6.9   964.7    0.00 
 122   19:40   0.00   51.2    95    5.4    36     5.9   964.8    0.00 
 122   19:50   0.00   51.0    95    5.0    38     5.7   964.9    0.00 
 122   20:00   0.00   50.9    96    4.7    39     6.1   965.0    0.00 
 122   20:10   0.00   50.8    96    4.2    84     6.1   965.1    0.00 
 122   20:20   0.00   50.5    92    3.4    94     6.0   965.2    0.00 
 122   20:30   0.00   50.7    93    4.1   102     5.4   965.3    0.00 
 122   20:40   0.00   50.7    94    3.2    91     5.3   965.4    0.00 
 122   20:50   0.00   50.5    93    3.8   108     6.1   965.6    0.00 
 122   21:00   0.00   50.6    94    3.6    59     4.3   965.7    0.00 
 122   21:10   0.00   50.7    93    3.9    52     6.1   965.8    0.00 
 122   21:20   0.00   50.7    94    4.7    43     5.5   965.9    0.00 
 122   21:30   0.00   50.4    95    4.5    42     6.1   965.9    0.00 
 122   21:40   0.00   50.4    96    4.3    48     5.8   965.9    0.00 
 122   21:50   0.00   50.4    96    5.2    46     6.4   965.9    0.00 
 122   22:00   0.00   50.5    97    5.1    42     6.4   966.0    0.00 
 122   22:10   0.00   50.5    97    3.3    65     5.4   966.1    0.00 
 122   22:20   0.00   50.5    97    3.2    88     4.8   966.2    0.00 
 122   22:30   0.00   50.3    97    2.6    87     4.5   966.2    0.00 
 122   22:40   0.00   50.6    97    2.1    60     4.2   966.2    0.00 
 122   22:50   0.00   50.7    97    4.7    33     8.4   966.2    0.00 
 122   23:00   0.00   50.6    97    9.4    32    12.1   966.1    0.00 
 122   23:10   0.00   50.4    98   10.4    34    13.2   966.1    0.00 
 122   23:20   0.00   50.2    98   11.8    34    14.7   966.0    0.00 
 122   23:30   0.00   50.1    98   10.0    34    13.4   966.0    0.00 
 122   23:40   0.00   50.0    98    5.9    36     8.2   966.1    0.00 
 122   23:50   0.00   50.0    98    5.1    31     8.0   966.1    0.00 
 123    0:00   0.00   49.9    98    2.0    42     4.8   966.2    0.00 
 123    0:10   0.00   49.8    98    1.4    40     4.9   966.2    0.00 
 123    0:20   0.00   49.6    98    1.8    44     4.2   966.1    0.00 
 123    0:30   0.00   49.4    98    1.8    96     3.7   966.0    0.00 
 123    0:40   0.00   49.2    98    1.7   134     4.9   966.0    0.00 
 123    0:50   0.00   49.2    99    5.7   169     8.8   966.0    0.00 
 123    1:00   0.00   49.5    99    8.7   181    11.1   966.0    0.00 
 123    1:10   0.00   49.4    99    9.1   177    12.8   966.0    0.00 
 123    1:20   0.00   49.2    99    7.4   180    10.0   965.9    0.00 
 123    1:30   0.00   49.2    99    7.8   175    10.6   965.9    0.00 
 123    1:40   0.00   49.2    99    7.6   177     9.7   965.9    0.00 
 123    1:50   0.00   49.2   100    7.2   186     9.3   966.0    0.00 
 123    2:00   0.00   49.3   100    8.8   190    11.1   966.1    0.00 
 123    2:10   0.00   49.1   100    9.2   198    11.4   966.1    0.00 
 123    2:20   0.00   49.0   100    9.5   189    11.5   966.1    0.00 
 123    2:30   0.00   48.9   100    9.2   198    10.8   966.1    0.00 
 123    2:40   0.00   48.9   100    7.6   198     9.6   966.1    0.00 
 123    2:50   0.00   48.9   100    7.3   197     8.9   966.2    0.00 
 123    3:00   0.00   48.8   100    5.1   187     7.0   966.1    0.00 
 123    3:10   0.00   48.8   100    3.0   163     5.0   966.1    0.00 
 123    3:20   0.00   48.4    99    3.1   102     5.1   966.0    0.00 
 123    3:30   0.00   47.8   100    4.1    41     6.9   965.9    0.00 
 123    3:40   0.00   48.2   100    6.7    37    10.2   965.9    0.00 
 123    3:50   0.00   48.4   100   11.7    26    15.1   965.7    0.00 
 123    4:00   0.00   48.6   100   12.9    30    15.4   965.6    0.00 
 123    4:10   0.00   48.7   100   12.2    24    14.1   965.7    0.00 
 123    4:20   0.00   48.8   100   10.6    26    13.7   965.7    0.00 
 123    4:30   0.00   48.8   100    7.4    38    11.2   965.8    0.00 
 123    4:40   0.00   48.8   100    3.4    49     8.5   965.9    0.00 
 123    4:50   0.00   48.8   100    4.1    26     7.2   966.0    0.00 
 123    5:00   0.00   48.8   100    2.7    51     6.4   966.1    0.00 
 123    5:10   0.00   48.9   100    2.5    37     5.0   966.2    0.00 
 123    5:20   0.00   48.9   100    0.8    42     2.3   966.3    0.00 
 123    5:30   0.01   49.0   100    0.8   137     3.5   966.4    0.00 
 123    5:40   0.02   49.0   100    4.0   171     6.6   966.5    0.00 
 123    5:50   0.03   48.8   100    7.3   184     9.1   966.6    0.00 
 123    6:00   0.04   48.8   100    9.4   188    12.5   966.6    0.00 
 123    6:10   0.07   49.0   100   10.3   185    12.2   966.7    0.00 
 123    6:20   0.10   49.1   100    9.5   180    12.1   966.7    0.00 
 123    6:30   0.09   49.3   100    7.4   180     9.3   966.9    0.00 
 123    6:40   0.09   49.8   100    3.9   157     7.3   967.0    0.00 
 123    6:50   0.11   50.3    99    2.2   121     3.7   967.2    0.00 
 123    7:00   0.16   51.0    99    2.1    50     3.8   967.2    0.00 
 123    7:10   0.17   51.0    99    1.8    20     4.0   967.3    0.00 
 123    7:20   0.20   51.3    99    1.2    47     2.9   967.4    0.00 
 123    7:30   0.21   52.2    98    1.5   182     4.4   967.5    0.00 
 123    7:40   0.22   52.5    98    1.2   354     3.5   967.5    0.00 
 123    7:50   0.27   53.5    97    1.4    99     5.0   967.6    0.00 
 123    8:00   0.30   53.4    94    2.2   193     4.7   967.7    0.00 
 123    8:10   0.40   53.8    93    3.4   171     8.6   967.7    0.00 
 123    8:20   0.42   54.2    90    4.5   182     7.9   967.7    0.00 
 123    8:30   0.49   54.0    88    4.3   171     6.9   967.7    0.00 
 123    8:40   0.47   55.0    84    4.8   163     9.1   967.8    0.00 
 123    8:50   0.57   55.8    81    4.4   168     8.3   967.7    0.00 
 123    9:00   0.65   55.5    81    5.3   181     9.6   967.7    0.00 
 123    9:10   0.68   56.5    79    3.3   167     7.7   967.7    0.00 
 123    9:20   0.75   59.2    74    2.6    94     5.9   967.7    0.00 
 123    9:30   0.78   62.1    68    4.6    58     8.0   967.7    0.00 
 123    9:40   0.82   61.4    70    5.8    43    10.0   967.6    0.00 
 123    9:50   0.83   61.1    71    6.6    41     9.8   967.6    0.00 
 123   10:00   0.84   59.7    74    5.9    41     8.9   967.6    0.00 
 123   10:10   0.86   60.1    74    6.2    45    10.4   967.6    0.00 
 123   10:20   0.88   60.2    73    6.6    39    10.5   967.6    0.00 
 123   10:30   0.90   60.6    72    7.0    40    12.1   967.6    0.00 
 123   10:40   0.90   60.4    73    5.5    37     8.8   967.6    0.00 
 123   10:50   0.92   61.4    71    5.5    44     9.9   967.6    0.00 
 123   11:00   0.93   62.4    68    7.1    38    11.1   967.5    0.00 
 123   11:10   0.94   60.6    72    8.3    33    12.1   967.5    0.00 
 123   11:20   0.94   59.5    75    7.8    36    12.5   967.4    0.00 
 123   11:30   0.95   60.7    72    7.6    36    12.4   967.3    0.00 
 123   11:40   0.95   59.6    74    5.6    40     9.3   967.3    0.00 
 123   11:50   0.95   61.6    70    4.0    47     6.9   967.2    0.00 
 123   12:00   0.95   63.5    66    4.6    44     8.2   967.1    0.00 
 123   12:10   0.95   64.6    64    3.4    51     6.3   967.0    0.00 
 123   12:20   0.95   65.6    63    3.9    45     8.8   966.8    0.00 
 123   12:30   0.95   66.0    62    5.2    40     8.6   966.8    0.00 
 123   12:40   0.94   64.7    64    6.3    35     8.9   966.7    0.00 
 123   12:50   0.94   63.1    67    6.0    39     9.3   966.6    0.00 
 123   13:00   0.93   63.6    66    4.7    37     8.2   966.6    0.00 

Return to Valley Peak, Santa Cruz Island Reserve graphs page.


Western Regional Climate Center,wrcc@dri.edu